Time;durP1;ratioP1;P1;durP2;ratioP2;P2;SDS_P1;SDS_P2;PMS_P1;PMS_P2;Temp;Humidity;BMP_temperature;BMP_pressure;BME280_temperature;BME280_humidity;BME280_pressure;Samples;Min_cycle;Max_cycle;Signal;HPM_P1;HPM_P2
2023/05/17 00:02:11;;;;;;;6.20;2.22;;;;;;;;;;5073738;28;20074;-80
2023/05/17 00:04:36;;;;;;;4.10;2.25;;;;;;;;;;5055417;28;20081;-81
2023/05/17 00:07:02;;;;;;;4.93;2.42;;;;;;;;;;5021811;28;20364;-79
2023/05/17 00:09:27;;;;;;;5.03;2.20;;;;;;;;;;5073363;28;20055;-80
2023/05/17 00:11:52;;;;;;;3.65;1.95;;;;;;;;;;5055766;28;20111;-81
2023/05/17 00:14:18;;;;;;;8.50;2.80;;;;;;;;;;5073319;28;20116;-81
2023/05/17 00:16:43;;;;;;;4.40;2.28;;;;;;;;;;5055434;28;20044;-81
2023/05/17 00:19:09;;;;;;;5.15;2.33;;;;;;;;;;5055451;28;20028;-81
2023/05/17 00:21:34;;;;;;;4.22;2.13;;;;;;;;;;5055442;28;20032;-81
2023/05/17 00:24:00;;;;;;;3.65;2.03;;;;;;;;;;5072870;28;20028;-81
2023/05/17 00:26:25;;;;;;;5.70;2.45;;;;;;;;;;5055241;28;20029;-80
2023/05/17 00:28:51;;;;;;;6.40;2.40;;;;;;;;;;5055255;28;20081;-80
2023/05/17 00:31:16;;;;;;;3.13;2.15;;;;;;;;;;5055130;28;20082;-81
2023/05/17 00:33:42;;;;;;;8.07;2.17;;;;;;;;;;5054955;28;20040;-81
2023/05/17 00:36:07;;;;;;;3.65;2.10;;;;;;;;;;5055062;28;20035;-81
2023/05/17 00:38:33;;;;;;;6.38;2.10;;;;;;;;;;5039039;28;20064;-81
2023/05/17 00:40:58;;;;;;;4.50;2.10;;;;;;;;;;5055578;28;20032;-81
2023/05/17 00:43:24;;;;;;;3.78;2.25;;;;;;;;;;5038312;28;20024;-81
2023/05/17 00:45:50;;;;;;;3.63;1.95;;;;;;;;;;5038557;28;20032;-81
2023/05/17 00:48:16;;;;;;;4.85;1.98;;;;;;;;;;5038371;28;20085;-81
2023/05/17 00:50:42;;;;;;;5.40;1.95;;;;;;;;;;5038677;28;20073;-81
2023/05/17 00:53:08;;;;;;;4.50;2.10;;;;;;;;;;5038393;28;20049;-81
2023/05/17 00:55:33;;;;;;;3.67;1.95;;;;;;;;;;5038768;28;20033;-80
2023/05/17 00:57:59;;;;;;;4.45;2.03;;;;;;;;;;5055659;28;20028;-80
2023/05/17 01:00:25;;;;;;;6.22;1.90;;;;;;;;;;5073281;28;20059;-80
2023/05/17 01:02:50;;;;;;;5.53;2.17;;;;;;;;;;5074570;28;20467;-80
2023/05/17 01:05:16;;;;;;;3.67;2.10;;;;;;;;;;5056038;28;20036;-80
2023/05/17 01:07:41;;;;;;;4.63;2.25;;;;;;;;;;5074317;28;20032;-80
2023/05/17 01:10:07;;;;;;;4.10;1.75;;;;;;;;;;5074529;28;20033;-80
2023/05/17 01:12:36;;;;;;;3.00;2.00;;;;;;;;;;5057282;28;20431;-80
2023/05/17 01:15:10;;;;;;;5.03;1.88;;;;;;;;;;5057485;28;20024;-80
2023/05/17 01:17:50;;;;;;;4.68;2.30;;;;;;;;;;5074823;28;20017;-80
2023/05/17 01:20:15;;;;;;;4.60;2.03;;;;;;;;;;5063032;28;20039;-80
2023/05/17 01:23:10;;;;;;;4.53;2.08;;;;;;;;;;5082775;28;20021;-80
2023/05/17 01:25:44;;;;;;;5.05;1.90;;;;;;;;;;5067800;28;20025;-80
2023/05/17 01:28:10;;;;;;;4.43;1.80;;;;;;;;;;5068119;28;20047;-80
2023/05/17 01:30:36;;;;;;;4.78;1.80;;;;;;;;;;5055754;28;20036;-80
2023/05/17 01:33:03;;;;;;;13.25;2.17;;;;;;;;;;5038590;28;20060;-80
2023/05/17 01:35:28;;;;;;;3.83;1.85;;;;;;;;;;5057618;28;20056;-80
2023/05/17 01:37:54;;;;;;;4.03;1.83;;;;;;;;;;5042645;28;20516;-80
2023/05/17 01:40:20;;;;;;;5.13;1.88;;;;;;;;;;5059444;28;20023;-80
2023/05/17 01:42:48;;;;;;;3.85;1.92;;;;;;;;;;5058624;28;20032;-80
2023/05/17 01:45:38;;;;;;;4.30;2.17;;;;;;;;;;5042889;28;20139;-80
2023/05/17 01:48:19;;;;;;;5.15;1.80;;;;;;;;;;5059327;28;20094;-80
2023/05/17 01:50:49;;;;;;;4.20;1.83;;;;;;;;;;5042582;28;20040;-80
2023/05/17 01:53:38;;;;;;;3.63;2.10;;;;;;;;;;5059302;28;20045;-80
2023/05/17 01:56:25;;;;;;;5.00;2.17;;;;;;;;;;5058669;28;20128;-80
2023/05/17 01:58:51;;;;;;;4.95;2.67;;;;;;;;;;5076339;28;20089;-80
2023/05/17 02:01:17;;;;;;;4.40;2.20;;;;;;;;;;5042925;28;20546;-80
2023/05/17 02:03:45;;;;;;;5.13;2.20;;;;;;;;;;5042845;28;20028;-80
2023/05/17 02:06:10;;;;;;;5.22;2.00;;;;;;;;;;5060146;28;20130;-80
2023/05/17 02:08:35;;;;;;;3.63;1.92;;;;;;;;;;5060606;28;20028;-80
2023/05/17 02:11:01;;;;;;;3.83;2.13;;;;;;;;;;5061736;28;20215;-80
2023/05/17 02:13:26;;;;;;;3.42;2.20;;;;;;;;;;5061304;28;20028;-80
2023/05/17 02:15:52;;;;;;;3.17;2.05;;;;;;;;;;5079031;28;20116;-80
2023/05/17 02:18:20;;;;;;;4.75;2.10;;;;;;;;;;5059248;28;20062;-80
2023/05/17 02:20:46;;;;;;;4.97;2.20;;;;;;;;;;5043098;28;20103;-80
2023/05/17 02:23:11;;;;;;;6.55;2.15;;;;;;;;;;5075637;28;20123;-80
2023/05/17 02:25:36;;;;;;;5.15;1.90;;;;;;;;;;5075254;28;20036;-81
2023/05/17 02:28:02;;;;;;;4.20;2.03;;;;;;;;;;5058054;28;20116;-80
2023/05/17 02:30:27;;;;;;;3.63;1.90;;;;;;;;;;5071358;28;20482;-81
2023/05/17 02:32:55;;;;;;;4.22;1.95;;;;;;;;;;5071379;28;20028;-80
2023/05/17 02:35:20;;;;;;;3.47;2.08;;;;;;;;;;5075478;28;20036;-80
2023/05/17 02:37:46;;;;;;;5.18;2.53;;;;;;;;;;5057939;28;20032;-80
2023/05/17 02:40:12;;;;;;;3.70;1.65;;;;;;;;;;5075732;28;20032;-79
2023/05/17 02:42:37;;;;;;;4.03;1.90;;;;;;;;;;5076020;28;20032;-80
2023/05/17 02:45:03;;;;;;;4.68;2.35;;;;;;;;;;5074762;28;20036;-80
2023/05/17 02:47:29;;;;;;;3.42;2.10;;;;;;;;;;5056959;28;20024;-80
2023/05/17 02:49:54;;;;;;;4.13;2.13;;;;;;;;;;5040329;28;20483;-80
2023/05/17 02:52:19;;;;;;;3.83;2.20;;;;;;;;;;5023891;28;20031;-81
2023/05/17 02:54:46;;;;;;;5.53;2.28;;;;;;;;;;5074853;28;20079;-80
2023/05/17 02:57:12;;;;;;;5.78;2.22;;;;;;;;;;5074877;28;20036;-80
2023/05/17 02:59:37;;;;;;;5.75;2.10;;;;;;;;;;5076667;28;20501;-80
2023/05/17 03:02:02;;;;;;;6.35;2.30;;;;;;;;;;5043361;28;20035;-80
2023/05/17 03:04:28;;;;;;;4.10;2.10;;;;;;;;;;5058156;28;20035;-80
2023/05/17 03:06:54;;;;;;;4.90;2.28;;;;;;;;;;5077396;28;20024;-80
2023/05/17 03:09:20;;;;;;;5.82;1.98;;;;;;;;;;5041520;28;20023;-80
2023/05/17 03:11:45;;;;;;;4.43;2.10;;;;;;;;;;5058002;28;20028;-80
2023/05/17 03:14:11;;;;;;;3.30;1.83;;;;;;;;;;5075232;28;20020;-80
2023/05/17 03:16:36;;;;;;;3.90;1.80;;;;;;;;;;5056951;28;20036;-80
2023/05/17 03:19:01;;;;;;;3.88;1.92;;;;;;;;;;5074724;28;20024;-79
2023/05/17 03:21:27;;;;;;;4.65;2.20;;;;;;;;;;5056257;28;20039;-80
2023/05/17 03:23:52;;;;;;;4.03;2.00;;;;;;;;;;5056373;28;20016;-80
2023/05/17 03:26:18;;;;;;;4.93;2.25;;;;;;;;;;5074770;28;20036;-80
2023/05/17 03:28:44;;;;;;;5.43;2.03;;;;;;;;;;5057072;28;20452;-80
2023/05/17 03:31:10;;;;;;;2.85;1.70;;;;;;;;;;5075686;28;20025;-80
2023/05/17 03:33:35;;;;;;;6.97;2.53;;;;;;;;;;5039694;28;20078;-80
2023/05/17 03:36:01;;;;;;;3.47;2.00;;;;;;;;;;5073657;28;20040;-80
2023/05/17 03:38:26;;;;;;;2.53;1.58;;;;;;;;;;5073560;28;20037;-80
2023/05/17 03:40:52;;;;;;;5.53;2.00;;;;;;;;;;5056368;28;20063;-80
2023/05/17 03:43:17;;;;;;;3.70;1.90;;;;;;;;;;5038991;28;20416;-80
2023/05/17 03:45:43;;;;;;;3.75;1.90;;;;;;;;;;5055490;28;20071;-80
2023/05/17 03:48:08;;;;;;;3.85;2.10;;;;;;;;;;5055821;28;20040;-80
2023/05/17 03:50:33;;;;;;;3.38;1.85;;;;;;;;;;5055587;28;20037;-80
2023/05/17 03:52:59;;;;;;;4.80;1.90;;;;;;;;;;5073419;28;20048;-80
2023/05/17 03:55:24;;;;;;;4.18;2.00;;;;;;;;;;5055321;28;20032;-80
2023/05/17 03:57:50;;;;;;;4.15;2.00;;;;;;;;;;5073024;28;20032;-80
2023/05/17 04:00:20;;;;;;;3.80;1.85;;;;;;;;;;5073605;28;20127;-80
2023/05/17 04:02:49;;;;;;;4.60;2.42;;;;;;;;;;5073119;28;20024;-80
2023/05/17 04:05:14;;;;;;;4.13;1.80;;;;;;;;;;5055394;28;20173;-80
2023/05/17 04:07:40;;;;;;;5.20;1.90;;;;;;;;;;5073120;28;20024;-80
2023/05/17 04:10:06;;;;;;;3.65;1.70;;;;;;;;;;5073700;28;20036;-80
2023/05/17 04:12:32;;;;;;;2.63;1.75;;;;;;;;;;5073163;28;20029;-80
2023/05/17 04:14:57;;;;;;;4.00;2.05;;;;;;;;;;5073850;28;20536;-80
2023/05/17 04:17:23;;;;;;;4.07;2.00;;;;;;;;;;5040408;28;20071;-80
2023/05/17 04:19:48;;;;;;;4.70;2.10;;;;;;;;;;5055061;28;20048;-80
2023/05/17 04:22:13;;;;;;;5.35;2.20;;;;;;;;;;5073053;28;20099;-80
2023/05/17 04:24:39;;;;;;;5.32;2.00;;;;;;;;;;5055212;28;20036;-80
2023/05/17 04:27:05;;;;;;;4.20;1.85;;;;;;;;;;5073088;28;20062;-80
2023/05/17 04:29:31;;;;;;;3.60;2.22;;;;;;;;;;5074400;28;20162;-80
2023/05/17 04:31:56;;;;;;;3.08;1.80;;;;;;;;;;5055794;28;20115;-79
2023/05/17 04:34:22;;;;;;;4.88;1.88;;;;;;;;;;5073286;28;20029;-77
2023/05/17 04:36:48;;;;;;;2.97;1.90;;;;;;;;;;5055547;28;20032;-80
2023/05/17 04:39:13;;;;;;;3.63;1.83;;;;;;;;;;5038921;28;20028;-78
2023/05/17 04:41:39;;;;;;;5.57;2.67;;;;;;;;;;5054955;28;20055;-79
2023/05/17 04:44:05;;;;;;;10.07;3.42;;;;;;;;;;5055239;28;20028;-79
2023/05/17 04:46:30;;;;;;;28.25;6.07;;;;;;;;;;5073086;28;20505;-78
2023/05/17 04:48:56;;;;;;;26.80;5.60;;;;;;;;;;5055361;28;20116;-78
2023/05/17 04:51:22;;;;;;;17.55;5.07;;;;;;;;;;5073386;28;20055;-78
2023/05/17 04:53:47;;;;;;;16.20;5.07;;;;;;;;;;5038691;28;20410;-78
2023/05/17 04:56:12;;;;;;;16.48;5.90;;;;;;;;;;5055580;28;20135;-77
2023/05/17 04:58:38;;;;;;;26.70;5.53;;;;;;;;;;5073441;28;20025;-78
2023/05/17 05:01:04;;;;;;;16.85;5.47;;;;;;;;;;5073021;28;20495;-79
2023/05/17 05:03:30;;;;;;;19.35;5.65;;;;;;;;;;5055251;28;20031;-78
2023/05/17 05:05:55;;;;;;;13.45;4.50;;;;;;;;;;5055365;28;20032;-78
2023/05/17 05:08:21;;;;;;;26.38;5.32;;;;;;;;;;5038612;28;20032;-79
2023/05/17 05:10:46;;;;;;;13.35;4.85;;;;;;;;;;5058043;28;20085;-79
2023/05/17 05:13:11;;;;;;;14.20;4.53;;;;;;;;;;5059316;28;20032;-80
2023/05/17 05:15:37;;;;;;;12.05;3.97;;;;;;;;;;5058864;28;20418;-79
2023/05/17 05:18:02;;;;;;;13.80;4.18;;;;;;;;;;5077037;28;20037;-79
2023/05/17 05:20:28;;;;;;;15.13;3.72;;;;;;;;;;5076537;28;20020;-79
2023/05/17 05:22:53;;;;;;;9.40;4.00;;;;;;;;;;5059174;28;20036;-80
2023/05/17 05:25:19;;;;;;;10.52;3.42;;;;;;;;;;5059127;28;20111;-80
2023/05/17 05:27:44;;;;;;;8.40;3.10;;;;;;;;;;5042724;28;20074;-79
2023/05/17 05:30:11;;;;;;;11.70;3.60;;;;;;;;;;5058778;28;20486;-80
2023/05/17 05:32:36;;;;;;;8.27;2.85;;;;;;;;;;5076639;28;20398;-80
2023/05/17 05:35:04;;;;;;;8.18;3.13;;;;;;;;;;5076946;28;20028;-81
2023/05/17 05:37:29;;;;;;;6.97;2.90;;;;;;;;;;5077164;28;20356;-80
2023/05/17 05:39:55;;;;;;;6.53;2.58;;;;;;;;;;5058747;28;20050;-80
2023/05/17 05:42:20;;;;;;;7.50;3.08;;;;;;;;;;5076468;28;20040;-80
2023/05/17 05:44:46;;;;;;;7.95;2.88;;;;;;;;;;5076852;28;20047;-80
2023/05/17 05:47:11;;;;;;;7.47;2.70;;;;;;;;;;5042154;28;20029;-80
2023/05/17 05:49:36;;;;;;;5.97;2.50;;;;;;;;;;5076373;28;20336;-79
2023/05/17 05:52:02;;;;;;;7.18;2.45;;;;;;;;;;5076009;28;20033;-80
2023/05/17 05:54:27;;;;;;;12.15;2.53;;;;;;;;;;5057964;28;20051;-79
2023/05/17 05:56:54;;;;;;;7.82;2.90;;;;;;;;;;5076295;28;20037;-80
2023/05/17 05:59:19;;;;;;;6.05;2.58;;;;;;;;;;5058177;28;20050;-80
2023/05/17 06:01:44;;;;;;;4.53;1.90;;;;;;;;;;5076090;28;20036;-80
2023/05/17 06:04:10;;;;;;;5.88;2.42;;;;;;;;;;5075968;28;20032;-78
2023/05/17 06:06:35;;;;;;;4.68;2.10;;;;;;;;;;5075876;28;20457;-78
2023/05/17 06:09:01;;;;;;;6.43;2.10;;;;;;;;;;5057603;28;20032;-78
2023/05/17 06:11:27;;;;;;;3.42;2.05;;;;;;;;;;5058005;28;20031;-79
2023/05/17 06:13:52;;;;;;;6.50;2.05;;;;;;;;;;5057490;28;20055;-78
2023/05/17 06:16:17;;;;;;;5.00;2.17;;;;;;;;;;5075461;28;20129;-78
2023/05/17 06:18:43;;;;;;;4.72;1.85;;;;;;;;;;5075706;28;20041;-78
2023/05/17 06:21:08;;;;;;;4.57;1.90;;;;;;;;;;5056829;28;20574;-78
2023/05/17 06:23:33;;;;;;;3.25;1.88;;;;;;;;;;5075480;28;20027;-79
2023/05/17 06:25:59;;;;;;;6.38;2.33;;;;;;;;;;5075595;28;20475;-79
2023/05/17 06:28:25;;;;;;;5.70;2.00;;;;;;;;;;5075662;28;20025;-79
2023/05/17 06:30:50;;;;;;;5.68;1.70;;;;;;;;;;5075480;28;20097;-79
2023/05/17 06:33:15;;;;;;;5.15;2.50;;;;;;;;;;5075206;28;20035;-79
2023/05/17 06:35:41;;;;;;;6.13;1.98;;;;;;;;;;5041193;28;20033;-78
2023/05/17 06:38:06;;;;;;;5.88;1.80;;;;;;;;;;5057421;28;20028;-80
2023/05/17 06:40:32;;;;;;;4.75;1.98;;;;;;;;;;5075084;28;20033;-79
2023/05/17 06:42:57;;;;;;;3.80;1.92;;;;;;;;;;5040568;28;20028;-79
2023/05/17 06:45:22;;;;;;;7.72;2.45;;;;;;;;;;5057466;28;20103;-79
2023/05/17 06:47:48;;;;;;;4.82;2.22;;;;;;;;;;5058017;28;20036;-79
2023/05/17 06:50:13;;;;;;;4.35;1.80;;;;;;;;;;5057183;28;20082;-78
2023/05/17 06:52:39;;;;;;;4.75;1.95;;;;;;;;;;5074720;28;20399;-79
2023/05/17 06:55:05;;;;;;;9.05;2.00;;;;;;;;;;5040454;28;20067;-79
2023/05/17 06:57:30;;;;;;;6.07;1.83;;;;;;;;;;5074906;28;20031;-79
2023/05/17 06:59:56;;;;;;;8.85;1.70;;;;;;;;;;5075107;28;20060;-79
2023/05/17 07:02:21;;;;;;;4.88;2.03;;;;;;;;;;5075239;28;20028;-78
2023/05/17 07:04:47;;;;;;;6.40;2.05;;;;;;;;;;5056874;28;20175;-78
2023/05/17 07:07:12;;;;;;;5.38;1.70;;;;;;;;;;5056863;28;20040;-78
2023/05/17 07:09:38;;;;;;;4.32;1.83;;;;;;;;;;5023590;28;20032;-78
2023/05/17 07:12:04;;;;;;;3.42;1.70;;;;;;;;;;5040016;28;20029;-78
2023/05/17 07:14:30;;;;;;;6.05;1.85;;;;;;;;;;5057270;28;20026;-77
2023/05/17 07:16:55;;;;;;;4.32;1.75;;;;;;;;;;5057189;28;20112;-78
2023/05/17 07:19:21;;;;;;;6.22;1.55;;;;;;;;;;5056796;28;20037;-78
2023/05/17 07:21:46;;;;;;;7.05;1.95;;;;;;;;;;5056788;28;20043;-78
2023/05/17 07:24:11;;;;;;;3.80;1.52;;;;;;;;;;5074470;28;20055;-78
2023/05/17 07:26:37;;;;;;;5.28;1.50;;;;;;;;;;5056353;28;20032;-78
2023/05/17 07:29:02;;;;;;;3.22;1.60;;;;;;;;;;5056398;28;20498;-78
2023/05/17 07:31:28;;;;;;;4.63;1.77;;;;;;;;;;5056406;28;20447;-78
2023/05/17 07:33:53;;;;;;;7.90;1.85;;;;;;;;;;5055491;28;20043;-79
2023/05/17 07:36:18;;;;;;;2.85;1.52;;;;;;;;;;5056283;28;20036;-78
2023/05/17 07:38:44;;;;;;;3.63;1.33;;;;;;;;;;5055288;28;20020;-79
2023/05/17 07:41:12;;;;;;;3.20;1.48;;;;;;;;;;5055469;28;20073;-79
2023/05/17 07:43:37;;;;;;;3.42;1.42;;;;;;;;;;5055808;28;20103;-79
2023/05/17 07:46:03;;;;;;;6.30;1.83;;;;;;;;;;5073368;28;20493;-79
2023/05/17 07:48:29;;;;;;;3.60;1.38;;;;;;;;;;5038702;28;20167;-79
2023/05/17 07:50:54;;;;;;;8.43;1.60;;;;;;;;;;5055275;28;20051;-79
2023/05/17 07:53:20;;;;;;;2.53;1.40;;;;;;;;;;5052849;28;20513;-79
2023/05/17 07:55:45;;;;;;;5.25;1.60;;;;;;;;;;5055128;28;20475;-79
2023/05/17 07:58:11;;;;;;;6.95;1.80;;;;;;;;;;5055086;28;20029;-79
2023/05/17 08:00:37;;;;;;;2.22;1.23;;;;;;;;;;5038340;28;20107;-79
2023/05/17 08:03:02;;;;;;;4.13;1.50;;;;;;;;;;5055232;28;20081;-78
2023/05/17 08:05:28;;;;;;;5.03;1.63;;;;;;;;;;5055044;28;20032;-80
2023/05/17 08:07:53;;;;;;;5.00;1.58;;;;;;;;;;5052909;28;20033;-78
2023/05/17 08:10:19;;;;;;;3.70;1.55;;;;;;;;;;5054510;28;20031;-79
2023/05/17 08:12:45;;;;;;;3.50;1.52;;;;;;;;;;5038162;28;20399;-78
2023/05/17 08:15:11;;;;;;;3.70;1.42;;;;;;;;;;5054865;28;20035;-78
2023/05/17 08:17:36;;;;;;;5.13;1.90;;;;;;;;;;5054659;28;20029;-79
2023/05/17 08:20:01;;;;;;;6.13;1.67;;;;;;;;;;5054777;28;20077;-79
2023/05/17 08:22:27;;;;;;;5.20;1.40;;;;;;;;;;5054404;28;20029;-78
2023/05/17 08:24:52;;;;;;;6.50;1.75;;;;;;;;;;5054834;28;20470;-77
2023/05/17 08:27:17;;;;;;;6.50;2.17;;;;;;;;;;5073246;28;20024;-78
2023/05/17 08:29:43;;;;;;;8.93;2.78;;;;;;;;;;5054927;28;20036;-79
2023/05/17 08:32:08;;;;;;;10.43;2.67;;;;;;;;;;5072941;28;20067;-79
2023/05/17 08:34:34;;;;;;;7.90;3.13;;;;;;;;;;5038089;28;20028;-80
2023/05/17 08:36:59;;;;;;;7.78;2.72;;;;;;;;;;5037778;28;20032;-79
2023/05/17 08:39:25;;;;;;;9.85;2.67;;;;;;;;;;5054623;28;20059;-79
2023/05/17 08:42:00;;;;;;;7.20;2.00;;;;;;;;;;5038098;28;20028;-79
2023/05/17 08:44:29;;;;;;;8.18;2.38;;;;;;;;;;5054589;28;20040;-79
2023/05/17 08:46:55;;;;;;;6.65;2.53;;;;;;;;;;5038989;28;20083;-79
2023/05/17 08:49:25;;;;;;;7.20;2.25;;;;;;;;;;5054687;28;20040;-79
2023/05/17 08:51:52;;;;;;;4.85;1.83;;;;;;;;;;5054210;28;20033;-79
2023/05/17 08:54:17;;;;;;;6.03;2.10;;;;;;;;;;5054280;28;20042;-79
2023/05/17 08:56:43;;;;;;;6.75;2.15;;;;;;;;;;5054483;28;20446;-79
2023/05/17 08:59:09;;;;;;;7.25;2.13;;;;;;;;;;5037809;28;20074;-79
2023/05/17 09:01:36;;;;;;;5.70;2.05;;;;;;;;;;5074550;28;20028;-80
2023/05/17 09:04:03;;;;;;;5.13;2.00;;;;;;;;;;5038089;28;20024;-80
2023/05/17 09:06:29;;;;;;;6.22;1.58;;;;;;;;;;5037569;28;20710;-80
2023/05/17 09:08:54;;;;;;;7.63;1.70;;;;;;;;;;5054336;28;20525;-79
2023/05/17 09:11:31;;;;;;;11.27;2.38;;;;;;;;;;5055402;28;20024;-80
2023/05/17 09:14:04;;;;;;;4.95;1.52;;;;;;;;;;5073087;28;20031;-79
2023/05/17 09:16:35;;;;;;;4.53;1.45;;;;;;;;;;5072193;28;20029;-80
2023/05/17 09:19:00;;;;;;;3.97;1.60;;;;;;;;;;5054422;28;20048;-80
2023/05/17 09:21:27;;;;;;;4.60;1.58;;;;;;;;;;5054211;28;20039;-79
2023/05/17 09:23:54;;;;;;;4.53;1.63;;;;;;;;;;5054243;28;20490;-79
2023/05/17 09:26:21;;;;;;;5.35;2.00;;;;;;;;;;5055231;28;20154;-81
2023/05/17 09:28:47;;;;;;;2.97;1.40;;;;;;;;;;5040891;28;20111;-81
2023/05/17 09:31:15;;;;;;;2.83;1.15;;;;;;;;;;5074787;28;20064;-81
2023/05/17 09:33:45;;;;;;;1.65;1.00;;;;;;;;;;5055601;28;20064;-80
2023/05/17 09:36:18;;;;;;;2.10;1.10;;;;;;;;;;5073976;28;20020;-79
2023/05/17 09:39:21;;;;;;;4.03;1.58;;;;;;;;;;5077783;28;20108;-79
2023/05/17 09:41:46;;;;;;;2.90;1.40;;;;;;;;;;5066593;28;20029;-79
2023/05/17 09:44:12;;;;;;;4.50;1.38;;;;;;;;;;5061611;28;20060;-80
2023/05/17 09:46:43;;;;;;;2.63;1.20;;;;;;;;;;5079085;28;20432;-80
2023/05/17 09:49:09;;;;;;;14.93;2.08;;;;;;;;;;5056568;28;20116;-80
2023/05/17 09:51:36;;;;;;;2.95;1.27;;;;;;;;;;5053617;28;20115;-80
2023/05/17 09:54:02;;;;;;;2.08;1.08;;;;;;;;;;5053738;28;20107;-79
2023/05/17 09:56:28;;;;;;;5.45;1.27;;;;;;;;;;5040342;28;20047;-78
2023/05/17 09:58:54;;;;;;;2.92;1.30;;;;;;;;;;5057577;28;20391;-80
2023/05/17 10:01:21;;;;;;;3.97;1.25;;;;;;;;;;5057485;28;20036;-80
2023/05/17 10:03:46;;;;;;;2.17;0.98;;;;;;;;;;5041435;28;20108;-79
2023/05/17 10:06:14;;;;;;;14.60;6.20;;;;;;;;;;5057551;28;20060;-80
2023/05/17 10:08:45;;;;;;;35.47;16.63;;;;;;;;;;5057617;28;20496;-79
2023/05/17 10:11:11;;;;;;;47.88;22.98;;;;;;;;;;5057807;28;20024;-79
2023/05/17 10:14:00;;;;;;;56.05;26.20;;;;;;;;;;5058270;28;20024;-79
2023/05/17 10:16:26;;;;;;;57.70;26.58;;;;;;;;;;5068376;28;20031;-79
2023/05/17 10:18:51;;;;;;;56.25;28.85;;;;;;;;;;5058395;28;20037;-78
2023/05/17 10:21:17;;;;;;;57.15;28.40;;;;;;;;;;5080285;28;20028;-79
2023/05/17 10:23:44;;;;;;;59.08;29.23;;;;;;;;;;5060167;28;20031;-80
2023/05/17 10:26:11;;;;;;;62.28;28.63;;;;;;;;;;5075938;28;20035;-79
2023/05/17 10:28:36;;;;;;;55.80;27.02;;;;;;;;;;5057984;28;20538;-79
2023/05/17 10:31:05;;;;;;;62.25;27.65;;;;;;;;;;5040946;28;20036;-80
2023/05/17 10:33:32;;;;;;;57.38;27.90;;;;;;;;;;5041025;28;20031;-80
2023/05/17 10:35:57;;;;;;;55.22;26.48;;;;;;;;;;5057608;28;20032;-79
2023/05/17 10:38:23;;;;;;;47.25;24.05;;;;;;;;;;5057625;28;20391;-81
2023/05/17 10:40:50;;;;;;;51.88;23.60;;;;;;;;;;5040839;28;20056;-80
2023/05/17 10:43:16;;;;;;;42.92;20.92;;;;;;;;;;5056818;28;20028;-80
2023/05/17 10:45:42;;;;;;;43.30;20.10;;;;;;;;;;5040308;28;20028;-80
2023/05/17 10:48:07;;;;;;;44.58;18.95;;;;;;;;;;5078512;28;20021;-80
2023/05/17 10:50:37;;;;;;;37.75;18.20;;;;;;;;;;5086074;28;20039;-80
2023/05/17 10:53:07;;;;;;;39.05;17.15;;;;;;;;;;5061182;28;20040;-79
2023/05/17 10:55:41;;;;;;;36.20;16.17;;;;;;;;;;5057507;28;20047;-80
2023/05/17 10:58:09;;;;;;;;;;;;;;;;;;5075329;28;20064;-79
2023/05/17 11:00:42;;;;;;;28.73;13.50;;;;;;;;;;5056718;28;20449;-81
2023/05/17 11:03:12;;;;;;;30.27;15.20;;;;;;;;;;5057234;28;20021;-80
2023/05/17 11:05:42;;;;;;;35.83;15.23;;;;;;;;;;5058481;28;20029;-81
2023/05/17 11:08:13;;;;;;;32.40;14.63;;;;;;;;;;5040066;28;20032;-80
2023/05/17 11:10:38;;;;;;;32.13;14.95;;;;;;;;;;5072884;28;20070;-79
2023/05/17 11:13:21;;;;;;;31.35;15.02;;;;;;;;;;5054199;28;20033;-80
2023/05/17 11:16:03;;;;;;;31.55;13.82;;;;;;;;;;5020107;28;20095;-82
2023/05/17 11:18:51;;;;;;;28.77;13.75;;;;;;;;;;5036579;28;20039;-85
2023/05/17 11:21:17;;;;;;;29.88;12.90;;;;;;;;;;5037055;28;20067;-82
2023/05/17 11:23:44;;;;;;;27.85;13.23;;;;;;;;;;5036704;28;20028;-81
2023/05/17 11:26:25;;;;;;;30.65;12.98;;;;;;;;;;5036225;28;20031;-80
2023/05/17 11:29:03;;;;;;;25.85;12.60;;;;;;;;;;5019549;28;20028;-81
2023/05/17 11:31:37;;;;;;;25.15;11.65;;;;;;;;;;5054265;28;20051;-79
2023/05/17 11:34:03;;;;;;;24.23;11.40;;;;;;;;;;5036210;28;20029;-79
2023/05/17 11:36:29;;;;;;;20.55;10.02;;;;;;;;;;5036545;28;20086;-78
2023/05/17 11:39:14;;;;;;;20.85;10.35;;;;;;;;;;5020529;28;20468;-80
2023/05/17 11:41:49;;;;;;;23.45;10.68;;;;;;;;;;5036443;28;20021;-79
2023/05/17 11:44:16;;;;;;;21.98;9.60;;;;;;;;;;5053902;28;20122;-79
2023/05/17 11:46:41;;;;;;;22.15;9.50;;;;;;;;;;5036456;28;20024;-79
2023/05/17 11:49:07;;;;;;;20.45;8.55;;;;;;;;;;5036598;28;20550;-80
2023/05/17 11:51:33;;;;;;;14.85;8.02;;;;;;;;;;5036662;28;20130;-80
2023/05/17 11:54:02;;;;;;;17.67;8.23;;;;;;;;;;5035373;28;20071;-79
2023/05/17 11:56:28;;;;;;;16.02;7.35;;;;;;;;;;5020144;28;20045;-79
2023/05/17 11:58:53;;;;;;;13.20;6.35;;;;;;;;;;5036025;28;20082;-79
2023/05/17 12:01:19;;;;;;;11.20;5.65;;;;;;;;;;5054069;28;20029;-79
2023/05/17 12:03:46;;;;;;;11.32;5.55;;;;;;;;;;5035799;28;20037;-79
2023/05/17 12:06:16;;;;;;;11.35;4.85;;;;;;;;;;5053891;28;20032;-79
2023/05/17 12:08:45;;;;;;;9.48;4.90;;;;;;;;;;5035813;28;20025;-80
2023/05/17 12:11:13;;;;;;;8.48;3.90;;;;;;;;;;5035897;28;20060;-80
2023/05/17 12:13:41;;;;;;;10.05;3.97;;;;;;;;;;5035462;28;20029;-80
2023/05/17 12:16:11;;;;;;;9.43;4.20;;;;;;;;;;5035387;28;20032;-80
2023/05/17 12:18:58;;;;;;;9.57;3.53;;;;;;;;;;5018868;28;20541;-80
2023/05/17 12:21:23;;;;;;;9.88;3.55;;;;;;;;;;5052995;28;20495;-80
2023/05/17 12:23:52;;;;;;;7.30;3.08;;;;;;;;;;5019681;28;20093;-80
2023/05/17 12:26:24;;;;;;;8.23;3.22;;;;;;;;;;5037149;28;20108;-79
2023/05/17 12:28:57;;;;;;;7.25;2.88;;;;;;;;;;5020028;28;20028;-79
2023/05/17 12:31:30;;;;;;;7.03;2.90;;;;;;;;;;5019806;28;20092;-80
2023/05/17 12:33:57;;;;;;;5.43;2.40;;;;;;;;;;5035620;28;20037;-80
2023/05/17 12:36:23;;;;;;;6.88;2.45;;;;;;;;;;5020746;28;20045;-80
2023/05/17 12:38:49;;;;;;;9.60;2.33;;;;;;;;;;5036685;28;20040;-80
2023/05/17 12:41:15;;;;;;;8.18;2.40;;;;;;;;;;5036367;28;20471;-81
2023/05/17 12:43:43;;;;;;;10.88;2.78;;;;;;;;;;5037256;28;20021;-78
2023/05/17 12:46:11;;;;;;;8.07;2.65;;;;;;;;;;5035662;28;20488;-78
2023/05/17 12:48:38;;;;;;;6.03;2.42;;;;;;;;;;5018853;28;20075;-79
2023/05/17 12:51:23;;;;;;;5.53;2.40;;;;;;;;;;5035605;28;20029;-80
2023/05/17 12:53:53;;;;;;;10.18;2.67;;;;;;;;;;5036470;28;20076;-80
2023/05/17 12:56:25;;;;;;;8.10;2.55;;;;;;;;;;5041334;28;20108;-80
2023/05/17 12:59:17;;;;;;;7.43;2.60;;;;;;;;;;5026505;28;20458;-80
2023/05/17 13:01:51;;;;;;;6.35;2.33;;;;;;;;;;5038853;28;20056;-81
2023/05/17 13:04:17;;;;;;;;;;;;;;;;;;5039201;28;20062;-79
2023/05/17 13:07:08;;;;;;;5.07;2.63;;;;;;;;;;5023634;28;19908;-80
2023/05/17 13:09:35;;;;;;;5.57;2.40;;;;;;;;;;5042309;28;20180;-80
2023/05/17 13:12:04;;;;;;;6.20;1.95;;;;;;;;;;5044207;28;20052;-80
2023/05/17 13:14:44;;;;;;;5.30;2.30;;;;;;;;;;5044482;28;20495;-80
2023/05/17 13:17:11;;;;;;;6.63;2.63;;;;;;;;;;5041873;28;20071;-79
2023/05/17 13:19:37;;;;;;;5.20;2.20;;;;;;;;;;5035338;28;20017;-82
2023/05/17 13:22:04;;;;;;;5.45;2.50;;;;;;;;;;5019367;28;20389;-80
2023/05/17 13:24:33;;;;;;;6.65;2.13;;;;;;;;;;5018757;28;20438;-82
2023/05/17 13:27:01;;;;;;;10.73;1.85;;;;;;;;;;5019141;28;20025;-81
2023/05/17 13:29:31;;;;;;;6.38;1.90;;;;;;;;;;5038048;28;20028;-82
2023/05/17 13:31:57;;;;;;;3.95;2.00;;;;;;;;;;5057035;28;20430;-82
2023/05/17 13:34:26;;;;;;;7.85;2.28;;;;;;;;;;5060139;28;20484;-80
2023/05/17 13:36:52;;;;;;;6.38;2.25;;;;;;;;;;5040082;28;20033;-82
2023/05/17 13:39:19;;;;;;;10.63;2.53;;;;;;;;;;5040333;28;20453;-81
2023/05/17 13:41:45;;;;;;;7.60;2.63;;;;;;;;;;5024426;28;20029;-83
2023/05/17 13:44:11;;;;;;;8.82;2.58;;;;;;;;;;5057642;28;20361;-81
2023/05/17 13:46:39;;;;;;;5.03;1.92;;;;;;;;;;5040659;28;20025;-82
2023/05/17 13:49:06;;;;;;;10.48;2.55;;;;;;;;;;5023868;28;20110;-82
2023/05/17 13:51:38;;;;;;;6.70;1.88;;;;;;;;;;5061092;28;20040;-81
2023/05/17 13:54:06;;;;;;;5.57;2.15;;;;;;;;;;5048498;28;20214;-82
2023/05/17 13:56:31;;;;;;;4.55;2.28;;;;;;;;;;5038687;28;20057;-82
2023/05/17 13:58:57;;;;;;;4.43;2.10;;;;;;;;;;5057592;28;20020;-82
2023/05/17 14:01:22;;;;;;;8.13;2.20;;;;;;;;;;5039208;28;20410;-80
2023/05/17 14:03:48;;;;;;;5.88;1.92;;;;;;;;;;5039302;28;20021;-82
2023/05/17 14:06:13;;;;;;;8.32;2.28;;;;;;;;;;5038401;28;20036;-82
2023/05/17 14:08:39;;;;;;;8.68;2.17;;;;;;;;;;5034002;28;20483;-82
2023/05/17 14:11:05;;;;;;;8.15;2.08;;;;;;;;;;5055747;28;20033;-82
2023/05/17 14:13:30;;;;;;;6.05;1.98;;;;;;;;;;5021781;28;20116;-82
2023/05/17 14:15:55;;;;;;;5.68;1.73;;;;;;;;;;5021477;28;20116;-82
2023/05/17 14:18:21;;;;;;;6.50;2.10;;;;;;;;;;5021329;28;20106;-82
2023/05/17 14:20:46;;;;;;;5.65;1.85;;;;;;;;;;5038083;28;20040;-84
2023/05/17 14:23:12;;;;;;;2.90;1.50;;;;;;;;;;5023573;28;20032;-84
2023/05/17 14:25:38;;;;;;;7.20;1.70;;;;;;;;;;5021640;28;20036;-83
2023/05/17 14:28:04;;;;;;;5.82;1.73;;;;;;;;;;5054913;28;20025;-83
2023/05/17 14:30:29;;;;;;;5.70;1.67;;;;;;;;;;5038809;28;20059;-82
2023/05/17 14:32:55;;;;;;;4.32;1.77;;;;;;;;;;5037253;28;20029;-82
2023/05/17 14:35:20;;;;;;;6.32;2.10;;;;;;;;;;5055717;28;20396;-82
2023/05/17 14:37:46;;;;;;;6.88;1.88;;;;;;;;;;5021181;28;20028;-83
2023/05/17 14:40:11;;;;;;;3.50;1.80;;;;;;;;;;5020788;28;20032;-82